Time;durP1;ratioP1;P1;durP2;ratioP2;P2;SDS_P1;SDS_P2;PMS_P1;PMS_P2;Temp;Humidity;BMP_temperature;BMP_pressure;BME280_temperature;BME280_humidity;BME280_pressure;Samples;Min_cycle;Max_cycle;Signal;HPM_P1;HPM_P2
2021/06/10 00:00:31;;;;;;;;;;;;;;;24.48;48.22;101518.41;2097550;28;4062;-76
2021/06/10 00:01:32;;;;;;;;;;;;;;;24.48;48.15;101521.25;2096506;28;3926;-76
2021/06/10 00:02:33;;;;;;;;;;;;;;;24.48;48.22;101521.25;2097302;28;3815;-77
2021/06/10 00:03:35;;;;;;;;;;;;;;;24.48;48.24;101521.25;2096599;28;3891;-77
2021/06/10 00:04:36;;;;;;;;;;;;;;;24.48;48.13;101521.25;2096512;28;3979;-77
2021/06/10 00:05:37;;;;;;;;;;;;;;;24.48;48.15;101521.25;2096377;28;3997;-77
2021/06/10 00:06:39;;;;;;;;;;;;;;;24.48;48.10;101527.84;2097644;28;4011;-77
2021/06/10 00:07:40;;;;;;;;;;;;;;;24.47;48.19;101519.59;2097019;28;4020;-76
2021/06/10 00:08:41;;;;;;;;;;;;;;;24.48;48.14;101521.25;2096555;28;4209;-77
2021/06/10 00:09:42;;;;;;;;;;;;;;;24.47;48.22;101516.75;2096744;28;4115;-77
2021/06/10 00:10:44;;;;;;;;;;;;;;;24.47;48.07;101517.56;2096202;28;4000;-77
2021/06/10 00:11:45;;;;;;;;;;;;;;;24.47;48.14;101513.88;2097457;28;4016;-77
2021/06/10 00:12:46;;;;;;;;;;;;;;;24.46;48.10;101515.91;2097556;28;3820;-77
2021/06/10 00:13:47;;;;;;;;;;;;;;;24.47;48.12;101513.88;2096965;28;3832;-76
2021/06/10 00:14:49;;;;;;;;;;;;;;;24.47;48.25;101513.88;2095357;28;3907;-77
2021/06/10 00:15:50;;;;;;;;;;;;;;;24.47;48.10;101513.88;2096155;28;3964;-77
2021/06/10 00:16:51;;;;;;;;;;;;;;;24.48;48.15;101515.53;2096640;28;3907;-78
2021/06/10 00:17:53;;;;;;;;;;;;;;;24.47;48.12;101513.88;2097313;28;4004;-77
2021/06/10 00:18:57;;;;;;;;;;;;;;;24.47;48.08;101517.56;2095731;28;3864;-78
2021/06/10 00:19:59;;;;;;;;;;;;;;;24.46;48.12;101517.94;2095821;28;4022;-78
2021/06/10 00:21:00;;;;;;;;;;;;;;;24.47;48.12;101519.59;2096248;28;4159;-78
2021/06/10 00:22:01;;;;;;;;;;;;;;;24.46;48.14;101513.06;2086882;28;4013;-78
2021/06/10 00:23:02;;;;;;;;;;;;;;;24.47;48.11;101519.59;2087774;28;3908;-78
2021/06/10 00:24:04;;;;;;;;;;;;;;;24.46;48.09;101523.69;2096929;28;4030;-78
2021/06/10 00:25:05;;;;;;;;;;;;;;;24.46;48.15;101515.91;2096011;28;3884;-78
2021/06/10 00:26:06;;;;;;;;;;;;;;;24.46;48.18;101512.22;2097559;28;4080;-77
2021/06/10 00:27:07;;;;;;;;;;;;;;;24.46;48.15;101515.09;2095966;28;4022;-78
2021/06/10 00:28:09;;;;;;;;;;;;;;;24.46;48.06;101515.09;2097180;28;4008;-78
2021/06/10 00:29:10;;;;;;;;;;;;;;;24.46;48.08;101515.91;2086287;28;4068;-78
2021/06/10 00:30:11;;;;;;;;;;;;;;;24.46;48.12;101515.09;2088025;28;3880;-78
2021/06/10 00:31:12;;;;;;;;;;;;;;;24.46;48.06;101517.94;2096965;28;3994;-78
2021/06/10 00:32:14;;;;;;;;;;;;;;;24.45;48.12;101511.38;2096237;28;3861;-78
2021/06/10 00:33:15;;;;;;;;;;;;;;;24.46;48.10;101512.22;2096681;28;5966;-78
2021/06/10 00:34:16;;;;;;;;;;;;;;;24.46;48.17;101512.22;2096968;28;3825;-78
2021/06/10 00:35:17;;;;;;;;;;;;;;;24.46;48.10;101512.22;2096615;28;3872;-78
2021/06/10 00:36:19;;;;;;;;;;;;;;;24.44;48.10;101501.97;2096665;28;4030;-78
2021/06/10 00:37:20;;;;;;;;;;;;;;;24.44;48.14;101510.53;2096519;28;3988;-78
2021/06/10 00:38:21;;;;;;;;;;;;;;;24.45;48.06;101511.38;2097470;28;3836;-75
2021/06/10 00:39:22;;;;;;;;;;;;;;;24.44;48.15;101504.81;2096196;28;4094;-75
2021/06/10 00:40:23;;;;;;;;;;;;;;;24.45;48.16;101511.38;2096817;28;3836;-75
2021/06/10 00:41:25;;;;;;;;;;;;;;;24.44;48.16;101504.81;2096770;28;4018;-76
2021/06/10 00:42:26;;;;;;;;;;;;;;;24.45;48.08;101514.22;2096601;28;3855;-75
2021/06/10 00:43:27;;;;;;;;;;;;;;;24.44;48.13;101516.25;2096309;28;3847;-75
2021/06/10 00:44:28;;;;;;;;;;;;;;;24.46;48.06;101515.09;2096700;28;4047;-75
2021/06/10 00:45:29;;;;;;;;;;;;;;;24.46;48.15;101515.09;2096616;28;3990;-76
2021/06/10 00:46:31;;;;;;;;;;;;;;;24.45;48.10;101508.50;2093497;28;4228;-74
2021/06/10 00:47:32;;;;;;;;;;;;;;;24.44;48.13;101507.69;2096726;28;3986;-75
2021/06/10 00:48:34;;;;;;;;;;;;;;;24.44;48.16;101504.81;2096665;28;3865;-75
2021/06/10 00:49:36;;;;;;;;;;;;;;;24.44;48.16;101510.53;2096731;28;3970;-75
2021/06/10 00:50:37;;;;;;;;;;;;;;;24.45;48.13;101505.66;2096464;28;4052;-75
2021/06/10 00:51:38;;;;;;;;;;;;;;;24.45;48.13;101505.66;2096700;28;4929;-75
2021/06/10 00:52:39;;;;;;;;;;;;;;;24.45;48.22;101514.22;2096510;28;4061;-75
2021/06/10 00:53:40;;;;;;;;;;;;;;;24.44;48.13;101510.53;2095896;28;3860;-74
2021/06/10 00:54:42;;;;;;;;;;;;;;;24.44;48.13;101513.41;2096594;28;3998;-75
2021/06/10 00:55:43;;;;;;;;;;;;;;;24.44;48.17;101507.69;2086288;28;3860;-74
2021/06/10 00:56:44;;;;;;;;;;;;;;;24.43;48.15;101500.31;2085360;28;3872;-74
2021/06/10 00:57:45;;;;;;;;;;;;;;;24.44;48.22;101507.69;2097198;28;4008;-74
2021/06/10 00:58:47;;;;;;;;;;;;;;;24.44;48.21;101510.53;2096478;28;3826;-75
2021/06/10 00:59:48;;;;;;;;;;;;;;;24.44;48.13;101510.53;2096469;28;4015;-74
2021/06/10 01:00:49;;;;;;;;;;;;;;;24.44;48.21;101513.41;2096962;28;3962;-74
2021/06/10 01:01:50;;;;;;;;;;;;;;;24.44;48.17;101510.53;2096519;28;3990;-75
2021/06/10 01:02:51;;;;;;;;;;;;;;;24.44;48.27;101510.53;2093012;28;3979;-75
2021/06/10 01:03:53;;;;;;;;;;;;;;;24.44;48.18;101513.41;2095894;28;3922;-74
2021/06/10 01:04:54;;;;;;;;;;;;;;;24.44;48.21;101519.13;2095441;28;3847;-75
2021/06/10 01:05:55;;;;;;;;;;;;;;;24.44;48.14;101510.53;2096555;28;3946;-74
2021/06/10 01:06:56;;;;;;;;;;;;;;;24.44;48.16;101516.25;2095893;28;3652;-74
2021/06/10 01:07:58;;;;;;;;;;;;;;;24.44;48.26;101521.16;2092771;28;4525;-75
2021/06/10 01:08:59;;;;;;;;;;;;;;;24.45;48.29;101517.09;2097818;28;3870;-76
2021/06/10 01:10:00;;;;;;;;;;;;;;;24.45;48.31;101511.38;2098922;28;4037;-75
2021/06/10 01:11:02;;;;;;;;;;;;;;;24.44;48.20;101509.72;2098570;28;4008;-75
2021/06/10 01:12:03;;;;;;;;;;;;;;;24.43;48.19;101508.03;2098272;28;3947;-74
2021/06/10 01:13:04;;;;;;;;;;;;;;;24.44;48.20;101504.81;2097213;28;3995;-75
2021/06/10 01:14:05;;;;;;;;;;;;;;;24.43;48.23;101514.63;2098289;28;4032;-75
2021/06/10 01:15:07;;;;;;;;;;;;;;;24.44;48.20;101515.44;2098933;28;4023;-76
2021/06/10 01:16:08;;;;;;;;;;;;;;;24.44;48.20;101504.81;2097438;28;4040;-75
2021/06/10 01:17:19;;;;;;;;;;;;;;;24.44;48.31;101516.25;2098616;28;3881;-75
2021/06/10 01:18:20;;;;;;;;;;;;;;;24.44;48.25;101510.53;2096666;28;3879;-75
2021/06/10 01:19:21;;;;;;;;;;;;;;;24.43;48.23;101508.03;2097002;28;3794;-75
2021/06/10 01:20:25;;;;;;;;;;;;;;;24.44;48.42;101509.72;2098070;28;4057;-74
2021/06/10 01:21:26;;;;;;;;;;;;;;;24.43;48.36;101511.75;2097147;28;3891;-75
2021/06/10 01:22:28;;;;;;;;;;;;;;;24.43;48.39;101508.88;2097835;28;4027;-75
2021/06/10 01:23:30;;;;;;;;;;;;;;;24.43;48.45;101516.63;2097683;28;4007;-75
2021/06/10 01:24:31;;;;;;;;;;;;;;;24.44;48.40;101506.84;2098332;28;3859;-75
2021/06/10 01:25:33;;;;;;;;;;;;;;;24.43;48.35;101508.03;2097820;28;4093;-74
2021/06/10 01:26:35;;;;;;;;;;;;;;;24.43;48.34;101506.03;2096831;28;3998;-74
2021/06/10 01:27:36;;;;;;;;;;;;;;;24.43;48.36;101505.16;2096136;28;3912;-74
2021/06/10 01:28:37;;;;;;;;;;;;;;;24.43;48.42;101508.88;2095782;28;3937;-74
2021/06/10 01:29:38;;;;;;;;;;;;;;;24.43;48.37;101508.03;2092879;28;4027;-74
2021/06/10 01:30:39;;;;;;;;;;;;;;;24.43;48.39;101503.16;2096022;28;4061;-75
2021/06/10 01:31:41;;;;;;;;;;;;;;;24.43;48.42;101510.88;2095564;28;3839;-74
2021/06/10 01:32:42;;;;;;;;;;;;;;;24.43;48.44;101514.63;2089208;28;5025;-75
2021/06/10 01:33:43;;;;;;;;;;;;;;;24.43;48.43;101508.03;2089713;28;3712;-74
2021/06/10 01:34:45;;;;;;;;;;;;;;;24.42;48.40;101515.75;2097059;28;3908;-74
2021/06/10 01:35:46;;;;;;;;;;;;;;;24.43;48.45;101502.31;2089139;28;4040;-75
2021/06/10 01:36:47;;;;;;;;;;;;;;;24.43;48.46;101508.03;2088869;28;3981;-73
2021/06/10 01:37:48;;;;;;;;;;;;;;;24.42;48.46;101501.44;2096926;28;5009;-73
2021/06/10 01:38:50;;;;;;;;;;;;;;;24.43;48.47;101508.03;2097324;28;3825;-73
2021/06/10 01:39:51;;;;;;;;;;;;;;;24.44;48.56;101504.00;2097392;28;4191;-73
2021/06/10 01:40:52;;;;;;;;;;;;;;;24.44;48.58;101501.13;2098004;28;5287;-73
2021/06/10 01:41:53;;;;;;;;;;;;;;;24.43;48.53;101497.44;2097776;28;5282;-73
2021/06/10 01:42:55;;;;;;;;;;;;;;;24.42;48.50;101498.59;2098046;28;3832;-73
2021/06/10 01:43:56;;;;;;;;;;;;;;;24.42;48.53;101507.16;2097498;28;4052;-73
2021/06/10 01:44:57;;;;;;;;;;;;;;;24.43;48.57;101505.16;2097111;28;5252;-73
2021/06/10 01:45:58;;;;;;;;;;;;;;;24.42;48.51;101498.59;2095452;28;4336;-73
2021/06/10 01:47:00;;;;;;;;;;;;;;;24.42;48.53;101497.75;2096998;28;3866;-73
2021/06/10 01:48:02;;;;;;;;;;;;;;;24.42;48.55;101498.59;2098315;28;3921;-73
2021/06/10 01:49:04;;;;;;;;;;;;;;;24.43;48.63;101503.16;2096559;28;3994;-74
2021/06/10 01:50:05;;;;;;;;;;;;;;;24.42;48.59;101492.03;2097574;28;4119;-73
2021/06/10 01:51:07;;;;;;;;;;;;;;;24.42;48.50;101490.00;2092427;28;3882;-73
2021/06/10 01:52:08;;;;;;;;;;;;;;;24.42;48.53;101492.03;2097672;28;4040;-73
2021/06/10 01:53:14;;;;;;;;;;;;;;;24.42;48.61;101489.19;2096988;28;4005;-74
2021/06/10 01:54:15;;;;;;;;;;;;;;;24.43;48.52;101488.88;2098339;28;3871;-75
2021/06/10 01:55:16;;;;;;;;;;;;;;;24.42;48.55;101484.28;2096849;28;3888;-74
2021/06/10 01:56:17;;;;;;;;;;;;;;;24.43;48.58;101488.00;2098135;28;3840;-75
2021/06/10 01:57:19;;;;;;;;;;;;;;;24.42;48.56;101487.16;2096171;28;4163;-74
2021/06/10 01:58:20;;;;;;;;;;;;;;;24.43;48.59;101485.16;2096423;28;4124;-75
2021/06/10 01:59:21;;;;;;;;;;;;;;;24.43;48.65;101488.88;2097524;28;3904;-74
2021/06/10 02:00:22;;;;;;;;;;;;;;;24.42;48.69;101478.56;2098313;28;3855;-74
2021/06/10 02:01:23;;;;;;;;;;;;;;;24.42;48.73;101484.28;2097400;28;3916;-75
2021/06/10 02:02:25;;;;;;;;;;;;;;;24.42;48.62;101475.72;2096527;28;4410;-74
2021/06/10 02:03:26;;;;;;;;;;;;;;;24.42;48.56;101483.47;2097478;28;3872;-74
2021/06/10 02:04:27;;;;;;;;;;;;;;;24.41;48.55;101482.63;2097388;28;4388;-74
2021/06/10 02:05:28;;;;;;;;;;;;;;;24.41;48.80;101481.81;2097016;28;4210;-74
2021/06/10 02:06:30;;;;;;;;;;;;;;;24.41;48.59;101482.63;2097041;28;3860;-74
2021/06/10 02:07:31;;;;;;;;;;;;;;;24.42;48.73;101475.72;2095197;28;3851;-74
2021/06/10 02:08:32;;;;;;;;;;;;;;;24.42;48.61;101483.47;2096502;28;4119;-74
2021/06/10 02:09:33;;;;;;;;;;;;;;;24.42;48.63;101484.28;2097643;28;4170;-74
2021/06/10 02:10:34;;;;;;;;;;;;;;;24.41;48.68;101479.78;2096693;28;3986;-74
2021/06/10 02:11:36;;;;;;;;;;;;;;;24.41;48.61;101485.50;2097831;28;4876;-74
2021/06/10 02:12:37;;;;;;;;;;;;;;;24.41;48.64;101494.06;2098392;28;3964;-74
2021/06/10 02:13:38;;;;;;;;;;;;;;;24.41;48.64;101482.63;2097411;28;4179;-74
2021/06/10 02:14:39;;;;;;;;;;;;;;;24.41;48.71;101485.50;2097954;28;3776;-75
2021/06/10 02:15:41;;;;;;;;;;;;;;;24.40;48.66;101480.97;2097059;28;3969;-75
2021/06/10 02:16:42;;;;;;;;;;;;;;;24.42;48.59;101489.19;2096923;28;4008;-75
2021/06/10 02:17:44;;;;;;;;;;;;;;;24.41;48.66;101491.22;2097685;28;4014;-74
2021/06/10 02:18:45;;;;;;;;;;;;;;;24.42;48.68;101497.75;2097163;28;4072;-75
2021/06/10 02:19:46;;;;;;;;;;;;;;;24.41;48.64;101490.38;2097247;28;3973;-75
2021/06/10 02:20:47;;;;;;;;;;;;;;;24.41;48.77;101484.66;2097351;28;4047;-75
2021/06/10 02:21:49;;;;;;;;;;;;;;;24.41;48.66;101488.34;2097456;28;3945;-75
2021/06/10 02:22:50;;;;;;;;;;;;;;;24.41;48.63;101488.34;2096798;28;5108;-74
2021/06/10 02:23:51;;;;;;;;;;;;;;;24.41;48.75;101491.22;2097175;28;4021;-75
2021/06/10 02:24:53;;;;;;;;;;;;;;;24.41;48.63;101491.22;2097644;28;3715;-76
2021/06/10 02:25:54;;;;;;;;;;;;;;;24.41;48.63;101494.06;2097619;28;3875;-74
2021/06/10 02:26:56;;;;;;;;;;;;;;;24.42;48.73;101487.16;2097285;28;3920;-75
2021/06/10 02:27:57;;;;;;;;;;;;;;;24.42;48.74;101480.59;2097584;28;3823;-76
2021/06/10 02:28:58;;;;;;;;;;;;;;;24.41;48.68;101488.34;2095904;28;3862;-75
2021/06/10 02:29:59;;;;;;;;;;;;;;;24.42;48.72;101490.00;2096648;28;3877;-74
2021/06/10 02:31:01;;;;;;;;;;;;;;;24.41;48.59;101488.34;2097964;28;4036;-75
2021/06/10 02:32:02;;;;;;;;;;;;;;;24.41;48.78;101479.78;2096450;28;3998;-74
2021/06/10 02:33:03;;;;;;;;;;;;;;;24.41;48.77;101471.19;2097311;28;3844;-74
2021/06/10 02:34:04;;;;;;;;;;;;;;;24.41;48.79;101465.47;2096695;28;3839;-75
2021/06/10 02:35:06;;;;;;;;;;;;;;;24.42;48.88;101466.31;2097036;28;5060;-74
2021/06/10 02:36:07;;;;;;;;;;;;;;;24.42;48.89;101470.00;2097908;28;3901;-74
2021/06/10 02:37:08;;;;;;;;;;;;;;;24.41;48.87;101468.34;2098068;28;4086;-75
2021/06/10 02:38:09;;;;;;;;;;;;;;;24.41;48.99;101465.47;2096448;28;4049;-74
2021/06/10 02:39:11;;;;;;;;;;;;;;;24.41;48.89;101465.47;2096728;28;4020;-74
2021/06/10 02:40:12;;;;;;;;;;;;;;;24.42;48.99;101467.13;2097653;28;5238;-74
2021/06/10 02:41:13;;;;;;;;;;;;;;;24.42;49.04;101457.72;2097380;28;4090;-74
2021/06/10 02:42:14;;;;;;;;;;;;;;;24.42;49.10;101446.28;2097421;28;4018;-74
2021/06/10 02:43:15;;;;;;;;;;;;;;;24.42;48.92;101449.13;2096869;28;4021;-75
2021/06/10 02:44:17;;;;;;;;;;;;;;;24.42;49.13;101452.00;2097255;28;4120;-75
2021/06/10 02:45:18;;;;;;;;;;;;;;;24.42;49.03;101452.81;2097032;28;3864;-74
2021/06/10 02:46:19;;;;;;;;;;;;;;;24.40;49.08;101443.78;2094758;28;5076;-75
2021/06/10 02:47:20;;;;;;;;;;;;;;;24.41;49.15;101444.63;2097617;28;3786;-75
2021/06/10 02:48:21;;;;;;;;;;;;;;;24.41;49.14;101445.44;2097811;28;4013;-75
2021/06/10 02:49:23;;;;;;;;;;;;;;;24.42;49.26;101444.25;2097463;28;4081;-75
2021/06/10 02:50:24;;;;;;;;;;;;;;;24.42;49.23;101452.81;2096865;28;4018;-74
2021/06/10 02:51:25;;;;;;;;;;;;;;;24.42;49.17;101444.25;2096810;28;4001;-74
2021/06/10 02:52:26;;;;;;;;;;;;;;;24.42;49.19;101444.25;2097411;28;3856;-75
2021/06/10 02:53:28;;;;;;;;;;;;;;;24.43;49.20;101445.09;2094792;28;3755;-75
2021/06/10 02:54:29;;;;;;;;;;;;;;;24.42;49.32;101437.69;2097178;28;3883;-74
2021/06/10 02:55:30;;;;;;;;;;;;;;;24.42;49.33;101441.38;2097251;28;4014;-75
2021/06/10 02:56:31;;;;;;;;;;;;;;;24.42;49.35;101443.41;2087879;28;3994;-75
2021/06/10 02:57:32;;;;;;;;;;;;;;;24.41;49.33;101448.31;2088003;28;4026;-74
2021/06/10 02:58:34;;;;;;;;;;;;;;;24.41;49.32;101454.03;2096760;28;4109;-75
2021/06/10 02:59:35;;;;;;;;;;;;;;;24.42;49.46;101455.69;2096861;28;4044;-74
2021/06/10 03:00:36;;;;;;;;;;;;;;;24.40;49.30;101449.50;2095932;28;3948;-74
2021/06/10 03:01:37;;;;;;;;;;;;;;;24.42;49.36;101449.97;2096634;28;3859;-74
2021/06/10 03:02:39;;;;;;;;;;;;;;;24.42;49.32;101447.09;2097038;28;3794;-74
2021/06/10 03:03:40;;;;;;;;;;;;;;;24.42;49.41;101461.41;2096501;28;3969;-74
2021/06/10 03:04:41;;;;;;;;;;;;;;;24.42;49.48;101481.44;2096902;28;3833;-74
2021/06/10 03:05:42;;;;;;;;;;;;;;;24.42;49.49;101484.28;2097800;28;3976;-75
2021/06/10 03:06:44;;;;;;;;;;;;;;;24.42;49.46;101486.31;2095002;28;3830;-74
2021/06/10 03:07:47;;;;;;;;;;;;;;;24.42;49.47;101490.00;2094965;28;3834;-75
2021/06/10 03:08:49;;;;;;;;;;;;;;;24.41;49.36;101479.78;2097320;28;4027;-75
2021/06/10 03:09:50;;;;;;;;;;;;;;;24.41;49.49;101476.09;2097036;28;3810;-75
2021/06/10 03:10:51;;;;;;;;;;;;;;;24.41;49.51;101479.78;2095973;28;3839;-75
2021/06/10 03:11:52;;;;;;;;;;;;;;;24.40;49.50;101478.13;2095989;28;4004;-75
2021/06/10 03:12:54;;;;;;;;;;;;;;;24.41;49.56;101487.53;2096830;28;3872;-75
2021/06/10 03:13:55;;;;;;;;;;;;;;;24.41;49.61;101488.34;2086831;28;3830;-75
2021/06/10 03:14:56;;;;;;;;;;;;;;;24.41;49.38;101488.34;2088454;28;3785;-75
2021/06/10 03:15:57;;;;;;;;;;;;;;;24.42;49.58;101486.31;2088184;28;3974;-75
2021/06/10 03:16:59;;;;;;;;;;;;;;;24.41;49.66;101481.81;2087859;28;3778;-75
2021/06/10 03:18:00;;;;;;;;;;;;;;;24.41;49.67;101485.50;2095910;28;4890;-75
2021/06/10 03:19:01;;;;;;;;;;;;;;;24.42;49.70;101484.28;2096793;28;4002;-75
2021/06/10 03:20:03;;;;;;;;;;;;;;;24.41;49.70;101482.63;2096467;28;3885;-76
2021/06/10 03:21:04;;;;;;;;;;;;;;;24.41;49.65;101485.50;2097213;28;4005;-77
2021/06/10 03:22:05;;;;;;;;;;;;;;;24.41;49.65;101494.06;2096557;28;3826;-76
2021/06/10 03:23:06;;;;;;;;;;;;;;;24.42;49.65;101489.19;2095778;28;4035;-76
2021/06/10 03:24:08;;;;;;;;;;;;;;;24.41;49.67;101488.34;2097153;28;3888;-76
2021/06/10 03:25:09;;;;;;;;;;;;;;;24.41;49.83;101494.06;2096931;28;3902;-76
2021/06/10 03:26:10;;;;;;;;;;;;;;;24.41;49.68;101485.50;2096741;28;4108;-75
2021/06/10 03:27:11;;;;;;;;;;;;;;;24.41;49.77;101476.91;2088403;28;3945;-76
2021/06/10 03:28:12;;;;;;;;;;;;;;;24.41;49.67;101482.63;2086623;28;3834;-76
2021/06/10 03:29:14;;;;;;;;;;;;;;;24.41;49.84;101488.34;2096301;28;3946;-76
2021/06/10 03:30:15;;;;;;;;;;;;;;;24.41;49.79;101476.91;2096447;28;3836;-76
2021/06/10 03:31:16;;;;;;;;;;;;;;;24.41;49.79;101476.91;2096901;28;3937;-74
2021/06/10 03:32:19;;;;;;;;;;;;;;;24.41;49.75;101476.09;2096018;28;3848;-74
2021/06/10 03:33:20;;;;;;;;;;;;;;;24.41;49.77;101471.19;2096352;28;4079;-75
2021/06/10 03:34:22;;;;;;;;;;;;;;;24.41;49.77;101485.50;2096501;28;3861;-75
2021/06/10 03:35:23;;;;;;;;;;;;;;;24.41;49.82;101485.50;2097666;28;4037;-74
2021/06/10 03:36:24;;;;;;;;;;;;;;;24.41;49.79;101481.81;2097121;28;3866;-75
2021/06/10 03:37:26;;;;;;;;;;;;;;;24.40;49.72;101483.84;2096514;28;3852;-75
2021/06/10 03:38:27;;;;;;;;;;;;;;;24.41;49.81;101481.81;2097261;28;3781;-75
2021/06/10 03:39:28;;;;;;;;;;;;;;;24.41;49.78;101484.66;2096223;28;3848;-74
2021/06/10 03:40:29;;;;;;;;;;;;;;;24.41;49.76;101484.66;2097533;28;4002;-75
2021/06/10 03:41:30;;;;;;;;;;;;;;;24.41;49.82;101488.34;2095696;28;3848;-74
2021/06/10 03:42:32;;;;;;;;;;;;;;;24.40;49.84;101483.84;2097648;28;4052;-75
2021/06/10 03:43:33;;;;;;;;;;;;;;;24.40;49.75;101486.69;2096187;28;3848;-75
2021/06/10 03:44:34;;;;;;;;;;;;;;;24.40;49.91;101480.16;2095384;28;4000;-75
2021/06/10 03:45:35;;;;;;;;;;;;;;;24.40;49.78;101483.84;2097248;28;4194;-75
2021/06/10 03:46:37;;;;;;;;;;;;;;;24.40;50.02;101480.97;2084304;28;4045;-75
2021/06/10 03:47:38;;;;;;;;;;;;;;;24.40;49.88;101483.84;2084952;28;4897;-75
2021/06/10 03:48:39;;;;;;;;;;;;;;;24.41;49.81;101482.63;2096446;28;3878;-74
2021/06/10 03:49:41;;;;;;;;;;;;;;;24.40;49.79;101486.69;2096275;28;3995;-74
2021/06/10 03:50:42;;;;;;;;;;;;;;;24.40;49.86;101480.97;2096291;28;4548;-74
2021/06/10 03:51:43;;;;;;;;;;;;;;;24.40;49.86;101474.44;2096970;28;4224;-74
2021/06/10 03:52:45;;;;;;;;;;;;;;;24.40;49.78;101480.97;2097014;28;3990;-75
2021/06/10 03:53:46;;;;;;;;;;;;;;;24.40;49.77;101474.44;2086886;28;4156;-75
2021/06/10 03:54:47;;;;;;;;;;;;;;;24.40;49.83;101480.16;2087899;28;3799;-75
2021/06/10 03:55:48;;;;;;;;;;;;;;;24.40;49.77;101475.25;2096707;28;4073;-75
2021/06/10 03:56:49;;;;;;;;;;;;;;;24.37;49.73;101475.97;2096374;28;3813;-75
2021/06/10 03:57:51;;;;;;;;;;;;;;;24.40;49.85;101474.44;2097184;28;4077;-74
2021/06/10 03:58:53;;;;;;;;;;;;;;;24.39;49.89;101479.28;2094782;28;3836;-75
2021/06/10 03:59:54;;;;;;;;;;;;;;;24.40;49.85;101485.88;2097131;28;3973;-74
2021/06/10 04:00:55;;;;;;;;;;;;;;;24.40;49.83;101477.28;2097174;28;3816;-75
2021/06/10 04:01:57;;;;;;;;;;;;;;;24.40;49.82;101480.97;2096332;28;3996;-74
2021/06/10 04:02:59;;;;;;;;;;;;;;;24.40;49.73;101480.16;2096262;28;3968;-75
2021/06/10 04:04:01;;;;;;;;;;;;;;;24.39;49.86;101489.91;2095173;28;4034;-75
2021/06/10 04:05:02;;;;;;;;;;;;;;;24.39;49.79;101478.47;2096637;28;4029;-75
2021/06/10 04:06:04;;;;;;;;;;;;;;;24.40;49.73;101483.00;2096621;28;3919;-84
2021/06/10 04:07:05;;;;;;;;;;;;;;;24.40;49.86;101486.69;2095235;28;3841;-77
2021/06/10 04:08:06;;;;;;;;;;;;;;;24.40;49.89;101483.00;2096649;28;3923;-74
2021/06/10 04:09:07;;;;;;;;;;;;;;;24.40;49.81;101494.44;2096405;28;4064;-77
2021/06/10 04:10:09;;;;;;;;;;;;;;;24.40;49.84;101495.28;2095129;28;3893;-74
2021/06/10 04:11:10;;;;;;;;;;;;;;;24.39;49.91;101490.72;2097222;28;3752;-74
2021/06/10 04:12:11;;;;;;;;;;;;;;;24.39;49.91;101487.88;2096668;28;4049;-75
2021/06/10 04:13:12;;;;;;;;;;;;;;;24.40;49.90;101495.28;2096037;28;4098;-75
2021/06/10 04:14:13;;;;;;;;;;;;;;;24.40;49.76;101491.59;2095750;28;3845;-74
2021/06/10 04:15:15;;;;;;;;;;;;;;;24.40;49.93;101498.13;2096018;28;3777;-74
2021/06/10 04:16:16;;;;;;;;;;;;;;;24.38;49.85;101491.94;2095385;28;5088;-74
2021/06/10 04:17:17;;;;;;;;;;;;;;;24.39;49.94;101493.59;2095909;28;3844;-73
2021/06/10 04:18:19;;;;;;;;;;;;;;;24.39;49.88;101490.72;2096772;28;4022;-74
2021/06/10 04:19:20;;;;;;;;;;;;;;;24.39;50.00;101489.91;2095999;28;4024;-74
2021/06/10 04:20:21;;;;;;;;;;;;;;;24.39;49.91;101495.63;2096566;28;4967;-74
2021/06/10 04:21:22;;;;;;;;;;;;;;;24.39;49.96;101490.72;2096501;28;3879;-75
2021/06/10 04:22:23;;;;;;;;;;;;;;;24.39;49.81;101496.44;2095404;28;4016;-75
2021/06/10 04:23:25;;;;;;;;;;;;;;;24.40;49.97;101491.59;2082794;28;4024;-74
2021/06/10 04:24:26;;;;;;;;;;;;;;;24.39;49.86;101490.72;2083737;28;5081;-75
2021/06/10 04:25:27;;;;;;;;;;;;;;;24.39;49.90;101490.72;2095376;28;4029;-75
2021/06/10 04:26:28;;;;;;;;;;;;;;;24.39;49.92;101485.00;2096639;28;3896;-74
2021/06/10 04:27:30;;;;;;;;;;;;;;;24.39;49.87;101485.00;2095707;28;4139;-74
2021/06/10 04:28:31;;;;;;;;;;;;;;;24.39;nan;101487.03;2095647;28;5123;-74
2021/06/10 04:29:32;;;;;;;;;;;;;;;24.39;50.02;101473.56;2094191;28;4140;-74
2021/06/10 04:30:33;;;;;;;;;;;;;;;24.38;49.90;101483.34;2097118;28;3960;-74
2021/06/10 04:31:34;;;;;;;;;;;;;;;24.38;50.03;101483.34;2097121;28;4006;-73
2021/06/10 04:32:36;;;;;;;;;;;;;;;24.39;50.10;101482.16;2097394;28;3784;-74
2021/06/10 04:33:37;;;;;;;;;;;;;;;24.39;nan;101490.72;2096408;28;3853;-74
2021/06/10 04:34:38;;;;;;;;;;;;;;;24.40;50.22;101485.88;2095425;28;4042;-79
2021/06/10 04:35:39;;;;;;;;;;;;;;;24.40;50.24;101485.88;2094604;28;3865;-80
2021/06/10 04:36:41;;;;;;;;;;;;;;;24.39;50.18;101485.00;2096851;28;4011;-76
2021/06/10 04:37:42;;;;;;;;;;;;;;;24.40;50.20;101483.00;2094738;28;3908;-74
2021/06/10 04:38:43;;;;;;;;;;;;;;;24.40;50.22;101474.44;2096321;28;4026;-75
2021/06/10 04:39:44;;;;;;;;;;;;;;;24.41;50.48;101487.53;2095066;28;4140;-78
2021/06/10 04:40:46;;;;;;;;;;;;;;;24.39;50.40;101476.44;2095992;28;4001;-76
2021/06/10 04:41:47;;;;;;;;;;;;;;;24.40;50.30;101486.69;2096417;28;3867;-77
2021/06/10 04:42:48;;;;;;;;;;;;;;;24.40;50.38;101489.56;2097048;28;3983;-76
2021/06/10 04:43:49;;;;;;;;;;;;;;;24.41;50.24;101478.94;2098358;28;3748;-77
2021/06/10 04:44:50;;;;;;;;;;;;;;;24.41;50.30;101481.81;2098361;28;3816;-76
2021/06/10 04:45:52;;;;;;;;;;;;;;;24.41;50.39;101479.78;2097488;28;3786;-77
2021/06/10 04:46:53;;;;;;;;;;;;;;;24.41;50.41;101476.91;2096680;28;3979;-74
2021/06/10 04:47:54;;;;;;;;;;;;;;;24.40;50.46;101478.13;2095194;28;3719;-74
2021/06/10 04:48:56;;;;;;;;;;;;;;;24.41;50.48;101476.09;2098566;28;3884;-75
2021/06/10 04:49:58;;;;;;;;;;;;;;;24.41;50.46;101481.81;2098027;28;3838;-75
2021/06/10 04:50:59;;;;;;;;;;;;;;;24.41;50.39;101478.94;2098456;28;4070;-75
2021/06/10 04:52:00;;;;;;;;;;;;;;;24.40;50.42;101475.25;2098222;28;4067;-75
2021/06/10 04:53:02;;;;;;;;;;;;;;;24.41;50.31;101473.22;2098519;28;3765;-75
2021/06/10 04:54:04;;;;;;;;;;;;;;;24.40;50.40;101480.97;2098773;28;3992;-76
2021/06/10 04:55:05;;;;;;;;;;;;;;;24.40;50.40;101474.44;2087910;28;4276;-77
2021/06/10 04:56:06;;;;;;;;;;;;;;;24.40;50.39;101480.16;2087638;28;4044;-74
2021/06/10 04:57:07;;;;;;;;;;;;;;;24.40;50.27;101480.16;2097612;28;3865;-73
2021/06/10 04:58:09;;;;;;;;;;;;;;;24.40;50.30;101477.28;2096296;28;4002;-75
2021/06/10 04:59:10;;;;;;;;;;;;;;;24.39;50.26;101475.59;2097432;28;4061;-74
2021/06/10 05:00:11;;;;;;;;;;;;;;;24.39;50.30;101482.16;2097435;28;3873;-76
2021/06/10 05:01:12;;;;;;;;;;;;;;;24.40;50.24;101480.97;2095027;28;3834;-75
2021/06/10 05:02:14;;;;;;;;;;;;;;;24.39;50.28;101467.84;2097657;28;4018;-75
2021/06/10 05:03:21;;;;;;;;;;;;;;;24.40;50.27;101474.44;2097224;28;4022;-75
2021/06/10 05:04:22;;;;;;;;;;;;;;;24.40;50.23;101474.44;2097528;28;3830;-76
2021/06/10 05:05:23;;;;;;;;;;;;;;;24.39;50.23;101478.47;2095590;28;4017;-73
2021/06/10 05:06:24;;;;;;;;;;;;;;;24.39;50.29;101473.56;2097061;28;4056;-69
2021/06/10 05:07:25;;;;;;;;;;;;;;;24.40;50.33;101474.44;2097831;28;4208;-69
2021/06/10 05:08:27;;;;;;;;;;;;;;;24.39;50.26;101476.44;2095807;28;4108;-69
2021/06/10 05:09:28;;;;;;;;;;;;;;;24.38;50.17;101477.63;2096973;28;4021;-69
2021/06/10 05:10:30;;;;;;;;;;;;;;;24.39;50.24;101478.47;2096567;28;3845;-69
2021/06/10 05:11:31;;;;;;;;;;;;;;;24.40;50.17;101480.16;2098131;28;5097;-68
2021/06/10 05:12:32;;;;;;;;;;;;;;;24.40;50.33;101477.28;2097601;28;4038;-70
2021/06/10 05:13:34;;;;;;;;;;;;;;;24.40;50.31;101486.69;2097001;28;3860;-69
2021/06/10 05:14:35;;;;;;;;;;;;;;;24.38;50.26;101477.63;2098467;28;4031;-68
2021/06/10 05:15:36;;;;;;;;;;;;;;;24.39;50.29;101485.00;2098267;28;4017;-68
2021/06/10 05:16:37;;;;;;;;;;;;;;;24.40;50.21;101485.88;2097928;28;4088;-71
2021/06/10 05:17:39;;;;;;;;;;;;;;;24.40;50.29;101491.59;2096336;28;5337;-70
2021/06/10 05:18:40;;;;;;;;;;;;;;;24.39;50.37;101485.00;2098422;28;3796;-68
2021/06/10 05:19:45;;;;;;;;;;;;;;;24.39;50.14;101479.28;2096580;28;3991;-76